createdAt,value
2019-01-10T00:01:16.107Z,4.55
2019-01-10T00:04:18.138Z,4.56
2019-01-10T00:07:20.022Z,4.42
2019-01-10T00:10:21.982Z,4.27
2019-01-10T00:13:23.944Z,4.03
2019-01-10T00:16:26.365Z,4.00
2019-01-10T00:19:28.303Z,3.98
2019-01-10T00:22:30.291Z,4.05
2019-01-10T00:25:33.296Z,4.04
2019-01-10T00:28:36.259Z,4.03
2019-01-10T00:31:39.305Z,4.06
2019-01-10T00:34:44.318Z,4.05
2019-01-10T00:37:47.683Z,4.08
2019-01-10T00:40:50.973Z,4.01
2019-01-10T00:43:54.979Z,4.04
2019-01-10T00:46:58.326Z,3.97
2019-01-10T00:50:01.623Z,3.88
2019-01-10T00:53:04.499Z,3.86
2019-01-10T00:56:07.981Z,3.78
2019-01-10T00:59:13.048Z,3.75
2019-01-10T01:02:15.623Z,3.70
2019-01-10T01:05:17.921Z,3.71
2019-01-10T01:08:19.830Z,3.58
2019-01-10T01:11:21.810Z,3.54
2019-01-10T01:14:23.714Z,3.55
2019-01-10T01:17:25.869Z,3.53
2019-01-10T01:20:27.953Z,3.46
2019-01-10T01:23:29.947Z,3.48
2019-01-10T01:26:31.869Z,3.48
2019-01-10T01:29:33.820Z,3.53
2019-01-10T01:32:35.745Z,3.50
2019-01-10T01:35:38.158Z,3.40
2019-01-10T01:38:40.118Z,3.30
2019-01-10T01:41:42.108Z,3.34
2019-01-10T01:44:44.078Z,3.31
2019-01-10T01:47:46.222Z,3.31
2019-01-10T01:50:48.131Z,3.32
2019-01-10T01:53:50.083Z,3.23
2019-01-10T01:56:53.464Z,3.20
2019-01-10T01:59:55.609Z,3.16
2019-01-10T02:02:57.544Z,3.14
2019-01-10T02:05:59.506Z,3.08
2019-01-10T02:09:01.430Z,3.12
2019-01-10T02:12:04.577Z,3.11
2019-01-10T02:15:06.621Z,3.04
2019-01-10T02:18:08.669Z,3.09
2019-01-10T02:21:10.633Z,3.03
2019-01-10T02:24:12.566Z,2.98
2019-01-10T02:27:14.567Z,2.99
2019-01-10T02:30:21.950Z,2.91
2019-01-10T02:33:24.986Z,2.91
2019-01-10T02:36:27.022Z,2.90
2019-01-10T02:39:29.035Z,2.84
2019-01-10T02:42:30.974Z,2.88
2019-01-10T02:45:32.834Z,2.93
2019-01-10T02:48:34.783Z,2.92
2019-01-10T02:51:36.801Z,2.87
2019-01-10T02:54:38.870Z,2.82
2019-01-10T02:57:40.946Z,2.76
2019-01-10T03:00:42.923Z,2.68
2019-01-10T03:03:44.844Z,2.63
2019-01-10T03:06:46.781Z,2.52
2019-01-10T03:09:48.709Z,2.53
2019-01-10T03:12:52.033Z,2.53
2019-01-10T03:15:53.948Z,2.48
2019-01-10T03:18:56.145Z,2.54
2019-01-10T03:21:58.127Z,2.38
2019-01-10T03:25:00.192Z,2.30
2019-01-10T03:28:02.143Z,2.33
2019-01-10T03:31:04.782Z,2.41
2019-01-10T03:34:06.721Z,2.48
2019-01-10T03:37:08.646Z,2.46
2019-01-10T03:40:15.830Z,2.43
2019-01-10T03:43:17.814Z,2.43
2019-01-10T03:46:19.808Z,2.36
2019-01-10T03:49:21.806Z,2.33
2019-01-10T03:52:23.755Z,2.33
2019-01-10T03:55:25.795Z,2.36
2019-01-10T03:58:27.950Z,2.51
2019-01-10T04:01:29.954Z,2.55
2019-01-10T04:04:31.881Z,2.58
2019-01-10T04:07:33.852Z,2.40
2019-01-10T04:10:35.833Z,2.41
2019-01-10T04:13:37.895Z,2.51
2019-01-10T04:16:39.785Z,2.55
2019-01-10T04:19:41.732Z,2.59
2019-01-10T04:22:43.748Z,2.63
2019-01-10T04:25:45.773Z,2.62
2019-01-10T04:28:47.833Z,2.64
2019-01-10T04:31:49.904Z,2.60
2019-01-10T04:34:51.795Z,2.67
2019-01-10T04:37:53.762Z,2.69
2019-01-10T04:40:55.638Z,2.68
2019-01-10T04:44:06.692Z,2.51
2019-01-10T04:47:02.139Z,2.64
2019-01-10T04:50:07.595Z,2.57
2019-01-10T04:53:09.551Z,2.60
2019-01-10T04:56:11.532Z,2.65
2019-01-10T04:59:13.717Z,2.72
2019-01-10T05:02:18.450Z,2.73
2019-01-10T05:05:19.707Z,2.66
2019-01-10T05:08:21.709Z,2.62
2019-01-10T05:11:23.634Z,2.66
2019-01-10T05:14:25.706Z,2.70
2019-01-10T05:17:30.172Z,2.69
2019-01-10T05:20:31.642Z,2.64
2019-01-10T05:23:33.631Z,2.58
2019-01-10T05:26:35.650Z,2.49
2019-01-10T05:29:37.636Z,2.51
2019-01-10T05:32:39.601Z,2.46
2019-01-10T05:35:41.547Z,2.50
2019-01-10T05:38:43.494Z,2.53
2019-01-10T05:41:45.437Z,2.49
2019-01-10T05:44:47.931Z,2.56
2019-01-10T05:47:49.919Z,2.45
2019-01-10T05:50:51.858Z,2.41
2019-01-10T05:53:53.755Z,2.38
2019-01-10T05:56:55.719Z,2.42
2019-01-10T05:59:57.894Z,2.53
2019-01-10T06:02:59.925Z,2.57
2019-01-10T06:06:01.914Z,2.62
2019-01-10T06:09:07.224Z,2.64
2019-01-10T06:12:09.132Z,2.59
2019-01-10T06:15:13.628Z,2.60
2019-01-10T06:18:16.867Z,2.69
2019-01-10T06:21:18.830Z,2.67
2019-01-10T06:24:20.812Z,2.70
2019-01-10T06:27:22.806Z,2.72
2019-01-10T06:30:24.810Z,2.79
2019-01-10T06:33:26.882Z,2.84
2019-01-10T06:36:28.832Z,2.93
2019-01-10T06:39:31.066Z,2.96
2019-01-10T06:42:33.033Z,2.98
2019-01-10T06:45:35.419Z,2.94
2019-01-10T06:48:37.440Z,2.96
2019-01-10T06:51:39.629Z,2.87
2019-01-10T06:54:41.582Z,2.93
2019-01-10T06:57:43.563Z,3.01
2019-01-10T07:00:45.624Z,3.03
2019-01-10T07:03:47.622Z,3.09
2019-01-10T07:06:49.600Z,3.07
2019-01-10T07:09:51.621Z,3.11
2019-01-10T07:12:53.578Z,3.19
2019-01-10T07:15:55.564Z,3.20
2019-01-10T07:18:57.534Z,3.23
2019-01-10T07:21:59.434Z,3.24
2019-01-10T07:25:01.438Z,3.31
2019-01-10T07:28:07.549Z,3.43
2019-01-10T07:31:11.322Z,3.49
2019-01-10T07:34:13.351Z,3.50
2019-01-10T07:37:15.284Z,3.59
2019-01-10T07:40:17.244Z,3.67
2019-01-10T07:43:20.601Z,3.72
2019-01-10T07:46:23.379Z,3.74
2019-01-10T07:49:25.309Z,3.81
2019-01-10T07:52:27.303Z,3.87
2019-01-10T07:55:29.329Z,3.91
2019-01-10T07:58:31.382Z,3.94
2019-01-10T08:01:33.433Z,4.00
2019-01-10T08:04:36.598Z,4.01
2019-01-10T08:07:38.774Z,3.92
2019-01-10T08:10:40.781Z,3.72
2019-01-10T08:13:43.922Z,3.52
2019-01-10T08:16:45.909Z,3.37
2019-01-10T08:19:47.854Z,3.37
2019-01-10T08:22:49.807Z,3.31
2019-01-10T08:25:51.764Z,3.20
2019-01-10T08:28:53.717Z,3.17
2019-01-10T08:31:55.647Z,3.19
2019-01-10T08:34:57.616Z,3.25
2019-01-10T08:37:59.569Z,3.29
2019-01-10T08:41:01.584Z,3.31
2019-01-10T08:44:03.607Z,3.31
2019-01-10T08:47:06.572Z,3.21
2019-01-10T08:50:12.140Z,3.08
2019-01-10T08:53:14.326Z,2.96
2019-01-10T08:56:16.262Z,2.94
2019-01-10T08:59:18.225Z,2.84
2019-01-10T09:02:20.344Z,2.81
2019-01-10T09:05:22.378Z,2.83
2019-01-10T09:08:24.318Z,2.82
2019-01-10T09:11:26.316Z,2.92
2019-01-10T09:14:28.338Z,3.06
2019-01-10T09:17:30.282Z,3.13
2019-01-10T09:20:32.196Z,3.16
2019-01-10T09:23:34.163Z,3.26
2019-01-10T09:26:37.571Z,3.23
2019-01-10T09:29:40.067Z,3.30
2019-01-10T09:32:42.013Z,3.34
2019-01-10T09:35:43.956Z,3.45
2019-01-10T09:38:45.867Z,3.59
2019-01-10T09:41:47.867Z,3.77
2019-01-10T09:44:49.787Z,3.91
2019-01-10T09:47:53.349Z,3.99
2019-01-10T09:50:55.515Z,3.97
2019-01-10T09:53:57.906Z,3.89
2019-01-10T09:56:59.774Z,3.67
2019-01-10T10:00:02.829Z,3.35
2019-01-10T10:03:04.862Z,3.18
2019-01-10T10:06:07.842Z,3.06
2019-01-10T10:09:10.151Z,3.13
2019-01-10T10:12:12.071Z,3.33
2019-01-10T10:15:16.080Z,3.55
2019-01-10T10:18:18.120Z,3.65
2019-01-10T10:21:20.102Z,3.78
2019-01-10T10:24:22.039Z,3.72
2019-01-10T10:27:23.953Z,3.81
2019-01-10T10:30:25.922Z,3.74
2019-01-10T10:33:27.897Z,3.73
2019-01-10T10:36:30.093Z,3.52
2019-01-10T10:39:32.030Z,3.25
2019-01-10T10:42:34.289Z,3.21
2019-01-10T10:45:36.211Z,3.23
2019-01-10T10:48:38.243Z,3.30
2019-01-10T10:51:40.136Z,3.35
2019-01-10T10:54:42.250Z,3.31
2019-01-10T10:57:44.152Z,3.40
2019-01-10T11:00:46.358Z,3.47
2019-01-10T11:03:48.393Z,3.42
2019-01-10T11:06:50.366Z,3.45
2019-01-10T11:09:52.297Z,3.45
2019-01-10T11:12:54.347Z,3.43
2019-01-10T11:15:56.261Z,3.38
2019-01-10T11:18:58.295Z,3.53
2019-01-10T11:22:00.228Z,3.77
2019-01-10T11:25:02.297Z,3.94
2019-01-10T11:28:05.155Z,4.10
2019-01-10T11:31:07.174Z,4.21
2019-01-10T11:34:09.145Z,4.11
2019-01-10T11:37:11.039Z,4.04
2019-01-10T11:40:15.911Z,4.02
2019-01-10T11:43:18.113Z,3.93
2019-01-10T11:46:20.160Z,3.83
2019-01-10T11:49:22.464Z,3.63
2019-01-10T11:52:24.381Z,3.62
2019-01-10T11:55:26.327Z,3.64
2019-01-10T11:58:28.261Z,3.67
2019-01-10T12:01:30.262Z,3.63
2019-01-10T12:04:32.271Z,3.59
2019-01-10T12:07:34.192Z,3.54
2019-01-10T12:10:36.087Z,3.49
2019-01-10T12:13:38.041Z,3.55
2019-01-10T12:16:39.957Z,3.54
2019-01-10T12:19:41.945Z,3.36
2019-01-10T12:22:44.169Z,3.22
2019-01-10T12:25:46.110Z,3.17
2019-01-10T12:28:48.018Z,3.23
2019-01-10T12:31:49.967Z,3.28
2019-01-10T12:34:51.892Z,3.29
2019-01-10T12:37:53.866Z,3.20
2019-01-10T12:40:55.816Z,3.13
2019-01-10T12:43:57.790Z,3.18
2019-01-10T12:46:59.871Z,3.17
2019-01-10T12:50:01.958Z,3.13
2019-01-10T12:53:03.875Z,3.15
2019-01-10T12:56:05.972Z,3.20
2019-01-10T12:59:07.844Z,3.26
2019-01-10T13:02:09.777Z,3.08
2019-01-10T13:05:12.535Z,3.08
2019-01-10T13:08:14.688Z,3.09
2019-01-10T13:11:16.557Z,3.09
2019-01-10T13:14:19.295Z,3.19
2019-01-10T13:17:21.192Z,3.20
2019-01-10T13:20:23.278Z,3.22
2019-01-10T13:23:25.177Z,3.10
2019-01-10T13:26:27.114Z,3.17
2019-01-10T13:29:29.026Z,3.15
2019-01-10T13:32:31.008Z,3.22
2019-01-10T13:35:32.977Z,3.35
2019-01-10T13:38:34.987Z,3.38
2019-01-10T13:41:36.875Z,3.36
2019-01-10T13:44:38.826Z,3.30
2019-01-10T13:47:41.022Z,3.18
2019-01-10T13:50:43.297Z,3.14
2019-01-10T13:53:45.233Z,3.12
2019-01-10T13:56:47.226Z,3.14
2019-01-10T13:59:49.157Z,3.10
2019-01-10T14:02:51.583Z,3.10
2019-01-10T14:05:53.678Z,2.88
2019-01-10T14:08:55.855Z,2.76
2019-01-10T14:11:57.856Z,2.84
2019-01-10T14:14:59.876Z,2.97
2019-01-10T14:18:01.779Z,2.95
2019-01-10T14:21:03.816Z,2.96
2019-01-10T14:24:05.725Z,2.90
2019-01-10T14:27:07.791Z,2.92
2019-01-10T14:30:16.465Z,2.88
2019-01-10T14:33:18.712Z,2.85
2019-01-10T14:36:20.660Z,2.86
2019-01-10T14:39:22.701Z,2.83
2019-01-10T14:42:24.665Z,2.85
2019-01-10T14:45:26.636Z,2.89
2019-01-10T14:48:28.538Z,2.90
2019-01-10T14:51:30.718Z,2.90
2019-01-10T14:54:32.669Z,2.82
2019-01-10T14:57:34.755Z,2.78
2019-01-10T15:00:36.874Z,2.78
2019-01-10T15:03:38.895Z,2.77
2019-01-10T15:06:40.965Z,2.76
2019-01-10T15:09:43.091Z,2.73
2019-01-10T15:12:45.798Z,2.81
2019-01-10T15:15:47.768Z,2.85
2019-01-10T15:18:49.705Z,2.86
2019-01-10T15:21:52.248Z,2.89
2019-01-10T15:24:54.155Z,2.97
2019-01-10T15:27:56.161Z,2.97
2019-01-10T15:30:58.154Z,3.01
2019-01-10T15:34:00.110Z,2.96
2019-01-10T15:37:02.065Z,2.83
2019-01-10T15:40:13.765Z,2.92
2019-01-10T15:43:15.758Z,2.97
2019-01-10T15:46:17.909Z,2.95
2019-01-10T15:49:19.894Z,2.92
2019-01-10T15:52:22.354Z,2.73
2019-01-10T15:55:26.194Z,2.61
2019-01-10T15:58:28.182Z,2.64
2019-01-10T16:01:30.133Z,2.50
2019-01-10T16:04:32.112Z,2.42
2019-01-10T16:07:34.300Z,2.34
2019-01-10T16:10:36.351Z,2.48
2019-01-10T16:13:38.351Z,2.50
2019-01-10T16:16:40.390Z,2.47
2019-01-10T16:19:42.311Z,2.40
2019-01-10T16:22:44.897Z,2.36
2019-01-10T16:25:46.959Z,2.45
2019-01-10T16:28:49.097Z,2.42
2019-01-10T16:31:51.197Z,2.47
2019-01-10T16:34:53.162Z,2.46
2019-01-10T16:37:55.364Z,2.46
2019-01-10T16:40:57.476Z,2.43
2019-01-10T16:43:59.409Z,2.44
2019-01-10T16:47:01.358Z,2.42
2019-01-10T16:50:06.793Z,2.51
2019-01-10T16:53:08.937Z,2.48
2019-01-10T16:56:10.981Z,2.46
2019-01-10T16:59:12.951Z,2.42
2019-01-10T17:02:14.983Z,2.42
2019-01-10T17:05:17.395Z,2.43
2019-01-10T17:08:19.447Z,2.43
2019-01-10T17:11:21.468Z,2.33
2019-01-10T17:14:23.426Z,2.43
2019-01-10T17:17:25.402Z,2.41
2019-01-10T17:20:27.404Z,2.36
2019-01-10T17:23:29.478Z,2.39
2019-01-10T17:26:31.427Z,2.37
2019-01-10T17:29:33.956Z,2.37
2019-01-10T17:32:35.881Z,2.35
2019-01-10T17:35:38.460Z,2.31
2019-01-10T17:38:40.437Z,2.26
2019-01-10T17:41:42.423Z,2.23
2019-01-10T17:44:44.348Z,2.19
2019-01-10T17:47:46.304Z,2.21
2019-01-10T17:50:48.282Z,2.23
2019-01-10T17:53:51.469Z,2.27
2019-01-10T17:56:53.347Z,2.33
2019-01-10T17:59:55.348Z,2.36
2019-01-10T18:02:57.474Z,2.34
2019-01-10T18:05:59.431Z,2.41
2019-01-10T18:09:03.633Z,2.37
2019-01-10T18:12:06.723Z,2.42
2019-01-10T18:15:11.278Z,2.43
2019-01-10T18:18:13.280Z,2.34
2019-01-10T18:21:15.298Z,2.32
2019-01-10T18:24:17.291Z,2.30
2019-01-10T18:27:19.294Z,2.31
2019-01-10T18:30:22.978Z,2.31
2019-01-10T18:33:25.213Z,2.34
2019-01-10T18:36:27.227Z,2.34
2019-01-10T18:39:30.704Z,2.27
2019-01-10T18:42:32.748Z,2.21
2019-01-10T18:45:34.678Z,2.24
2019-01-10T18:48:39.853Z,2.23
2019-01-10T18:51:40.508Z,2.24
2019-01-10T18:54:42.668Z,2.25
2019-01-10T18:57:47.708Z,2.23
2019-01-10T19:00:49.673Z,2.24
2019-01-10T19:03:52.186Z,2.27
2019-01-10T19:06:54.235Z,2.27
2019-01-10T19:09:57.682Z,2.29
2019-01-10T19:12:59.645Z,2.31
2019-01-10T19:16:01.585Z,2.34
2019-01-10T19:19:03.727Z,2.36
2019-01-10T19:22:05.675Z,2.35
2019-01-10T19:25:09.406Z,2.38
2019-01-10T19:28:11.762Z,2.42
2019-01-10T19:31:14.368Z,2.38
2019-01-10T19:34:16.434Z,2.41
2019-01-10T19:37:18.462Z,2.40
2019-01-10T19:40:21.320Z,2.46
2019-01-10T19:43:25.453Z,2.44
2019-01-10T19:50:37.147Z,2.44
2019-01-10T19:53:39.129Z,2.24
2019-01-10T19:56:42.407Z,2.25
2019-01-10T19:59:44.570Z,2.34
2019-01-10T20:02:48.103Z,2.40
2019-01-10T20:05:50.833Z,2.53
2019-01-10T20:08:53.372Z,2.57
2019-01-10T20:11:56.006Z,2.57
2019-01-10T20:14:58.399Z,2.61
2019-01-10T20:18:04.262Z,2.49
2019-01-10T20:21:07.475Z,2.43
2019-01-10T20:24:13.092Z,2.41
2019-01-10T20:27:15.434Z,2.41
2019-01-10T20:30:17.725Z,2.44
2019-01-10T20:33:19.710Z,2.51
2019-01-10T20:36:22.017Z,2.57
2019-01-10T20:39:24.701Z,2.65
2019-01-10T20:42:26.730Z,2.76
2019-01-10T20:45:28.687Z,2.79
2019-01-10T20:48:32.571Z,2.84
2019-01-10T20:51:34.612Z,2.91
2019-01-10T20:54:37.126Z,2.92
2019-01-10T20:57:39.073Z,2.92
2019-01-10T21:00:41.321Z,2.86
2019-01-10T21:03:43.714Z,2.80
2019-01-10T21:06:45.653Z,2.68
2019-01-10T21:09:48.839Z,2.72
2019-01-10T21:12:52.309Z,2.82
2019-01-10T21:15:54.946Z,2.88
2019-01-10T21:18:56.854Z,2.88
2019-01-10T21:21:58.793Z,2.86
2019-01-10T21:25:01.984Z,2.79
2019-01-10T21:28:03.963Z,2.80
2019-01-10T21:31:06.083Z,2.71
2019-01-10T21:34:08.359Z,2.74
2019-01-10T21:37:10.383Z,2.69
2019-01-10T21:40:18.494Z,2.72
2019-01-10T21:43:20.479Z,2.66
2019-01-10T21:46:22.453Z,2.57
2019-01-10T21:49:24.357Z,2.53
2019-01-10T21:52:26.316Z,2.57
2019-01-10T21:55:28.218Z,2.48
2019-01-10T21:58:30.629Z,2.46
2019-01-10T22:01:34.022Z,2.39
2019-01-10T22:04:36.241Z,2.32
2019-01-10T22:07:38.179Z,2.33
2019-01-10T22:10:40.129Z,2.35
2019-01-10T22:13:42.215Z,2.31
2019-01-10T22:16:44.203Z,2.18
2019-01-10T22:19:46.118Z,2.20
2019-01-10T22:22:48.179Z,2.25
2019-01-10T22:25:50.166Z,2.34
2019-01-10T22:28:52.700Z,2.40
2019-01-10T22:31:54.645Z,2.46
2019-01-10T22:34:56.617Z,2.54
2019-01-10T22:37:58.572Z,2.52
2019-01-10T22:41:00.545Z,2.56
2019-01-10T22:44:02.818Z,2.61
2019-01-10T22:47:04.752Z,2.69
2019-01-10T22:50:10.234Z,2.75
2019-01-10T22:53:12.177Z,2.76
2019-01-10T22:56:14.110Z,2.74
2019-01-10T22:59:16.122Z,2.77
2019-01-10T23:02:18.645Z,2.77
2019-01-10T23:05:20.649Z,2.81
2019-01-10T23:08:23.454Z,2.80
2019-01-10T23:11:25.625Z,2.77
2019-01-10T23:14:27.756Z,2.80
2019-01-10T23:17:33.216Z,2.86
2019-01-10T23:20:35.209Z,2.87
2019-01-10T23:23:37.219Z,2.85
2019-01-10T23:26:39.155Z,2.83
2019-01-10T23:29:41.173Z,2.83
2019-01-10T23:32:43.077Z,2.79
2019-01-10T23:35:46.772Z,2.78
2019-01-10T23:39:09.958Z,2.81
2019-01-10T23:42:12.316Z,2.80
2019-01-10T23:45:14.423Z,2.78
2019-01-10T23:48:16.482Z,2.88
2019-01-10T23:51:18.467Z,2.89
2019-01-10T23:54:20.500Z,2.97
2019-01-10T23:57:22.461Z,2.90
